sensor_id;sensor_type;location;lat;lon;timestamp;pressure;altitude;pressure_sealevel;temperature;humidity
48244;BME280;34053;51.088;6.572;2022-12-18T00:01:49;102260.53;;;-3.27;68.59
48244;BME280;34053;51.088;6.572;2022-12-18T00:04:21;102266.25;;;-3.16;69.03
48244;BME280;34053;51.088;6.572;2022-12-18T00:06:53;102264.56;;;-3.16;69.79
48244;BME280;34053;51.088;6.572;2022-12-18T00:09:24;102258.41;;;-3.03;69.01
48244;BME280;34053;51.088;6.572;2022-12-18T00:11:54;102265.47;;;-2.98;68.89
48244;BME280;34053;51.088;6.572;2022-12-18T00:14:25;102258.41;;;-3.03;68.76
48244;BME280;34053;51.088;6.572;2022-12-18T00:16:55;102258.47;;;-3.01;68.85
48244;BME280;34053;51.088;6.572;2022-12-18T00:19:28;102258.69;;;-3.13;68.42
48244;BME280;34053;51.088;6.572;2022-12-18T00:21:58;102262.31;;;-3.09;68.91
48244;BME280;34053;51.088;6.572;2022-12-18T00:24:29;102278.28;;;-3.15;68.61
48244;BME280;34053;51.088;6.572;2022-12-18T00:27:00;102280.75;;;-3.17;69.10
48244;BME280;34053;51.088;6.572;2022-12-18T00:29:30;102272.94;;;-3.03;68.59
48244;BME280;34053;51.088;6.572;2022-12-18T00:32:01;102277.16;;;-3.04;68.98
48244;BME280;34053;51.088;6.572;2022-12-18T00:34:31;102272.44;;;-3.12;68.85
48244;BME280;34053;51.088;6.572;2022-12-18T00:37:02;102275.97;;;-3.10;69.21
48244;BME280;34053;51.088;6.572;2022-12-18T00:39:32;102270.97;;;-3.07;69.01
48244;BME280;34053;51.088;6.572;2022-12-18T00:42:03;102265.06;;;-3.06;68.50
48244;BME280;34053;51.088;6.572;2022-12-18T00:44:52;102259.44;;;-2.99;68.61
48244;BME280;34053;51.088;6.572;2022-12-18T00:47:22;102259.28;;;-3.02;68.75
48244;BME280;34053;51.088;6.572;2022-12-18T00:49:53;102254.16;;;-3.02;68.61
48244;BME280;34053;51.088;6.572;2022-12-18T00:52:23;102250.91;;;-3.14;68.84
48244;BME280;34053;51.088;6.572;2022-12-18T00:54:54;102251.81;;;-3.14;68.41
48244;BME280;34053;51.088;6.572;2022-12-18T00:57:24;102262.72;;;-3.18;68.19
48244;BME280;34053;51.088;6.572;2022-12-18T00:59:54;102259.56;;;-3.29;68.71
48244;BME280;34053;51.088;6.572;2022-12-18T01:02:25;102261.00;;;-3.18;68.87
48244;BME280;34053;51.088;6.572;2022-12-18T01:04:55;102257.03;;;-3.12;68.22
48244;BME280;34053;51.088;6.572;2022-12-18T01:07:26;102257.50;;;-3.20;68.94
48244;BME280;34053;51.088;6.572;2022-12-18T01:09:56;102249.41;;;-3.11;68.98
48244;BME280;34053;51.088;6.572;2022-12-18T01:12:27;102248.59;;;-3.10;69.00
48244;BME280;34053;51.088;6.572;2022-12-18T01:14:57;102248.19;;;-3.18;68.88
48244;BME280;34053;51.088;6.572;2022-12-18T01:17:28;102253.97;;;-3.05;68.65
48244;BME280;34053;51.088;6.572;2022-12-18T01:19:58;102246.56;;;-3.32;68.61
48244;BME280;34053;51.088;6.572;2022-12-18T01:22:29;102239.66;;;-3.33;67.82
48244;BME280;34053;51.088;6.572;2022-12-18T01:24:59;102237.66;;;-3.39;68.86
48244;BME280;34053;51.088;6.572;2022-12-18T01:27:30;102240.25;;;-3.54;69.44
48244;BME280;34053;51.088;6.572;2022-12-18T01:30:01;102239.31;;;-3.39;69.03
48244;BME280;34053;51.088;6.572;2022-12-18T01:32:32;102234.84;;;-3.43;68.80
48244;BME280;34053;51.088;6.572;2022-12-18T01:35:03;102243.34;;;-3.44;68.81
48244;BME280;34053;51.088;6.572;2022-12-18T01:37:34;102244.16;;;-3.29;68.67
48244;BME280;34053;51.088;6.572;2022-12-18T01:40:05;102248.00;;;-3.37;68.13
48244;BME280;34053;51.088;6.572;2022-12-18T01:42:35;102242.63;;;-3.42;67.77
48244;BME280;34053;51.088;6.572;2022-12-18T01:45:22;102249.22;;;-3.62;68.61
48244;BME280;34053;51.088;6.572;2022-12-18T01:48:05;102251.53;;;-3.82;69.80
48244;BME280;34053;51.088;6.572;2022-12-18T01:50:41;102257.81;;;-3.76;69.58
48244;BME280;34053;51.088;6.572;2022-12-18T01:55:48;102260.09;;;-3.66;69.27
48244;BME280;34053;51.088;6.572;2022-12-18T01:58:27;102252.91;;;-3.57;69.31
48244;BME280;34053;51.088;6.572;2022-12-18T02:01:01;102249.75;;;-3.68;68.71
48244;BME280;34053;51.088;6.572;2022-12-18T02:03:31;102253.81;;;-3.71;69.30
48244;BME280;34053;51.088;6.572;2022-12-18T02:06:07;102251.38;;;-3.85;69.52
48244;BME280;34053;51.088;6.572;2022-12-18T02:08:50;102253.13;;;-3.84;69.02
48244;BME280;34053;51.088;6.572;2022-12-18T02:17:01;102254.53;;;-3.74;69.38
48244;BME280;34053;51.088;6.572;2022-12-18T02:22:27;102254.72;;;-3.86;69.35
48244;BME280;34053;51.088;6.572;2022-12-18T02:25:05;102251.19;;;-3.88;69.22
48244;BME280;34053;51.088;6.572;2022-12-18T02:27:42;102243.59;;;-4.16;70.61
48244;BME280;34053;51.088;6.572;2022-12-18T02:30:15;102237.59;;;-4.02;69.85
48244;BME280;34053;51.088;6.572;2022-12-18T02:32:51;102238.28;;;-4.04;70.22
48244;BME280;34053;51.088;6.572;2022-12-18T02:35:25;102248.63;;;-4.03;69.55
48244;BME280;34053;51.088;6.572;2022-12-18T02:37:58;102247.75;;;-4.18;70.67
48244;BME280;34053;51.088;6.572;2022-12-18T02:40:29;102245.44;;;-4.14;70.29
48244;BME280;34053;51.088;6.572;2022-12-18T02:43:11;102236.72;;;-4.02;69.78
48244;BME280;34053;51.088;6.572;2022-12-18T02:45:54;102242.78;;;-4.00;69.88
48244;BME280;34053;51.088;6.572;2022-12-18T02:48:31;102239.88;;;-4.06;70.06
48244;BME280;34053;51.088;6.572;2022-12-18T02:51:25;102238.28;;;-4.04;69.90
48244;BME280;34053;51.088;6.572;2022-12-18T02:54:11;102238.47;;;-4.01;69.62
48244;BME280;34053;51.088;6.572;2022-12-18T02:56:55;102243.34;;;-4.21;70.10
48244;BME280;34053;51.088;6.572;2022-12-18T02:59:39;102244.31;;;-4.19;70.23
48244;BME280;34053;51.088;6.572;2022-12-18T03:03:09;102253.16;;;-4.14;70.34
48244;BME280;34053;51.088;6.572;2022-12-18T03:05:29;102248.38;;;-4.07;69.45
48244;BME280;34053;51.088;6.572;2022-12-18T03:08:06;102250.16;;;-4.21;70.72
48244;BME280;34053;51.088;6.572;2022-12-18T03:10:47;102245.81;;;-4.37;70.86
48244;BME280;34053;51.088;6.572;2022-12-18T03:13:42;102242.34;;;-4.23;70.20
48244;BME280;34053;51.088;6.572;2022-12-18T03:16:18;102235.38;;;-4.11;70.08
48244;BME280;34053;51.088;6.572;2022-12-18T03:18:58;102235.84;;;-4.18;70.18
48244;BME280;34053;51.088;6.572;2022-12-18T03:21:35;102233.44;;;-4.15;70.10
48244;BME280;34053;51.088;6.572;2022-12-18T03:24:17;102219.72;;;-4.00;70.21
48244;BME280;34053;51.088;6.572;2022-12-18T03:26:54;102219.09;;;-3.96;70.08
48244;BME280;34053;51.088;6.572;2022-12-18T03:29:38;102220.34;;;-3.89;69.64
48244;BME280;34053;51.088;6.572;2022-12-18T03:32:16;102231.13;;;-3.80;69.68
48244;BME280;34053;51.088;6.572;2022-12-18T03:34:51;102236.59;;;-3.74;69.49
48244;BME280;34053;51.088;6.572;2022-12-18T03:37:27;102231.19;;;-3.78;69.61
48244;BME280;34053;51.088;6.572;2022-12-18T03:40:00;102233.75;;;-3.78;69.72
48244;BME280;34053;51.088;6.572;2022-12-18T03:51:12;102219.75;;;-3.69;68.71
48244;BME280;34053;51.088;6.572;2022-12-18T03:54:05;102213.84;;;-3.68;69.29
48244;BME280;34053;51.088;6.572;2022-12-18T03:56:42;102221.31;;;-3.56;69.15
48244;BME280;34053;51.088;6.572;2022-12-18T03:59:16;102218.75;;;-3.56;68.52
48244;BME280;34053;51.088;6.572;2022-12-18T04:01:49;102218.94;;;-3.53;68.98
48244;BME280;34053;51.088;6.572;2022-12-18T04:04:25;102210.88;;;-3.59;69.15
48244;BME280;34053;51.088;6.572;2022-12-18T04:06:58;102203.03;;;-3.62;69.05
48244;BME280;34053;51.088;6.572;2022-12-18T04:09:30;102212.38;;;-3.63;68.98
48244;BME280;34053;51.088;6.572;2022-12-18T04:12:00;102205.66;;;-3.60;68.90
48244;BME280;34053;51.088;6.572;2022-12-18T04:14:31;102197.56;;;-3.68;68.78
48244;BME280;34053;51.088;6.572;2022-12-18T04:17:05;102204.16;;;-4.03;69.56
48244;BME280;34053;51.088;6.572;2022-12-18T04:19:36;102203.19;;;-3.90;69.02
48244;BME280;34053;51.088;6.572;2022-12-18T04:22:08;102205.56;;;-4.08;69.14
48244;BME280;34053;51.088;6.572;2022-12-18T04:24:39;102200.47;;;-4.23;69.53
48244;BME280;34053;51.088;6.572;2022-12-18T04:27:09;102195.03;;;-3.98;69.67
48244;BME280;34053;51.088;6.572;2022-12-18T04:29:40;102205.84;;;-4.04;69.11
48244;BME280;34053;51.088;6.572;2022-12-18T04:32:11;102220.59;;;-3.85;69.02
48244;BME280;34053;51.088;6.572;2022-12-18T04:34:43;102225.72;;;-3.85;68.25
48244;BME280;34053;51.088;6.572;2022-12-18T04:37:14;102212.56;;;-4.06;68.91
48244;BME280;34053;51.088;6.572;2022-12-18T04:39:44;102209.38;;;-4.47;69.90
48244;BME280;34053;51.088;6.572;2022-12-18T04:42:15;102207.72;;;-4.46;70.44
48244;BME280;34053;51.088;6.572;2022-12-18T04:44:46;102206.81;;;-4.62;70.42
48244;BME280;34053;51.088;6.572;2022-12-18T04:47:16;102201.34;;;-4.53;69.83
48244;BME280;34053;51.088;6.572;2022-12-18T04:49:46;102197.09;;;-4.67;70.49
48244;BME280;34053;51.088;6.572;2022-12-18T04:52:19;102194.47;;;-4.54;70.13
48244;BME280;34053;51.088;6.572;2022-12-18T04:54:50;102183.31;;;-4.69;70.35
48244;BME280;34053;51.088;6.572;2022-12-18T04:57:20;102188.00;;;-4.62;70.32
48244;BME280;34053;51.088;6.572;2022-12-18T04:59:51;102181.53;;;-4.40;69.66
48244;BME280;34053;51.088;6.572;2022-12-18T05:02:21;102183.50;;;-4.51;69.69
48244;BME280;34053;51.088;6.572;2022-12-18T05:04:52;102176.31;;;-4.87;70.73
48244;BME280;34053;51.088;6.572;2022-12-18T05:07:22;102177.09;;;-4.88;70.82
48244;BME280;34053;51.088;6.572;2022-12-18T05:09:55;102172.91;;;-5.01;71.19
48244;BME280;34053;51.088;6.572;2022-12-18T05:12:26;102176.53;;;-4.97;71.47
48244;BME280;34053;51.088;6.572;2022-12-18T05:14:56;102176.38;;;-5.00;71.40
48244;BME280;34053;51.088;6.572;2022-12-18T05:17:26;102185.16;;;-5.10;71.28
48244;BME280;34053;51.088;6.572;2022-12-18T05:19:57;102185.47;;;-4.91;71.17
48244;BME280;34053;51.088;6.572;2022-12-18T05:22:27;102189.63;;;-4.93;70.77
48244;BME280;34053;51.088;6.572;2022-12-18T05:25:01;102195.56;;;-4.79;70.58
48244;BME280;34053;51.088;6.572;2022-12-18T05:27:31;102193.84;;;-4.65;69.95
48244;BME280;34053;51.088;6.572;2022-12-18T05:30:03;102201.94;;;-4.57;69.90
48244;BME280;34053;51.088;6.572;2022-12-18T05:32:33;102205.22;;;-4.60;70.47
48244;BME280;34053;51.088;6.572;2022-12-18T05:35:06;102211.66;;;-4.66;70.11
48244;BME280;34053;51.088;6.572;2022-12-18T05:37:37;102204.88;;;-4.66;70.25
48244;BME280;34053;51.088;6.572;2022-12-18T05:40:08;102215.66;;;-4.56;69.92
48244;BME280;34053;51.088;6.572;2022-12-18T05:42:38;102214.69;;;-4.44;69.83
48244;BME280;34053;51.088;6.572;2022-12-18T05:45:09;102228.84;;;-4.35;69.54
48244;BME280;34053;51.088;6.572;2022-12-18T05:47:39;102226.88;;;-4.39;69.89
48244;BME280;34053;51.088;6.572;2022-12-18T05:50:10;102226.88;;;-4.39;69.85
48244;BME280;34053;51.088;6.572;2022-12-18T05:52:41;102234.84;;;-4.35;69.76
48244;BME280;34053;51.088;6.572;2022-12-18T05:55:11;102243.47;;;-4.48;69.57
48244;BME280;34053;51.088;6.572;2022-12-18T05:57:42;102247.56;;;-4.36;70.08
48244;BME280;34053;51.088;6.572;2022-12-18T06:00:13;102246.94;;;-4.32;69.42
48244;BME280;34053;51.088;6.572;2022-12-18T06:02:46;102246.06;;;-4.33;69.58
48244;BME280;34053;51.088;6.572;2022-12-18T06:05:17;102243.69;;;-4.30;69.66
48244;BME280;34053;51.088;6.572;2022-12-18T06:07:47;102249.06;;;-4.25;69.69
48244;BME280;34053;51.088;6.572;2022-12-18T06:10:18;102241.84;;;-4.17;69.36
48244;BME280;34053;51.088;6.572;2022-12-18T06:12:48;102244.47;;;-4.16;69.53
48244;BME280;34053;51.088;6.572;2022-12-18T06:15:19;102238.72;;;-4.27;69.25
48244;BME280;34053;51.088;6.572;2022-12-18T06:17:50;102240.41;;;-4.42;69.03
48244;BME280;34053;51.088;6.572;2022-12-18T06:20:21;102241.66;;;-4.35;69.94
48244;BME280;34053;51.088;6.572;2022-12-18T06:22:52;102237.75;;;-4.29;69.78
48244;BME280;34053;51.088;6.572;2022-12-18T06:25:22;102239.91;;;-4.21;69.93
48244;BME280;34053;51.088;6.572;2022-12-18T06:27:53;102232.88;;;-4.24;69.73
48244;BME280;34053;51.088;6.572;2022-12-18T06:30:23;102230.19;;;-4.27;69.46
48244;BME280;34053;51.088;6.572;2022-12-18T06:32:54;102224.34;;;-4.24;69.79
48244;BME280;34053;51.088;6.572;2022-12-18T06:35:24;102212.56;;;-4.21;69.49
48244;BME280;34053;51.088;6.572;2022-12-18T06:37:55;102195.69;;;-4.17;69.37
48244;BME280;34053;51.088;6.572;2022-12-18T06:40:25;102207.53;;;-4.49;69.03
48244;BME280;34053;51.088;6.572;2022-12-18T06:42:56;102204.03;;;-4.21;69.29
48244;BME280;34053;51.088;6.572;2022-12-18T06:45:26;102206.91;;;-4.30;69.56
48244;BME280;34053;51.088;6.572;2022-12-18T06:47:57;102195.78;;;-4.31;69.25
48244;BME280;34053;51.088;6.572;2022-12-18T06:50:27;102191.88;;;-4.24;69.26
48244;BME280;34053;51.088;6.572;2022-12-18T06:52:58;102197.19;;;-4.21;69.46
48244;BME280;34053;51.088;6.572;2022-12-18T06:55:29;102202.31;;;-4.21;69.42
48244;BME280;34053;51.088;6.572;2022-12-18T06:57:59;102208.25;;;-4.22;69.01
48244;BME280;34053;51.088;6.572;2022-12-18T07:00:30;102203.63;;;-4.28;69.17
48244;BME280;34053;51.088;6.572;2022-12-18T07:03:01;102205.25;;;-4.45;69.94
48244;BME280;34053;51.088;6.572;2022-12-18T07:05:31;102210.38;;;-4.45;69.88
48244;BME280;34053;51.088;6.572;2022-12-18T07:08:02;102211.63;;;-4.38;69.91
48244;BME280;34053;51.088;6.572;2022-12-18T07:10:32;102207.38;;;-4.22;69.10
48244;BME280;34053;51.088;6.572;2022-12-18T07:13:03;102219.97;;;-4.40;69.96
48244;BME280;34053;51.088;6.572;2022-12-18T07:15:33;102214.44;;;-4.18;69.49
48244;BME280;34053;51.088;6.572;2022-12-18T07:18:04;102206.47;;;-4.23;69.76
48244;BME280;34053;51.088;6.572;2022-12-18T07:20:34;102200.22;;;-4.28;69.62
48244;BME280;34053;51.088;6.572;2022-12-18T07:23:05;102203.91;;;-4.23;69.91
48244;BME280;34053;51.088;6.572;2022-12-18T07:25:36;102205.06;;;-4.18;69.98
48244;BME280;34053;51.088;6.572;2022-12-18T07:28:07;102205.25;;;-4.30;69.43
48244;BME280;34053;51.088;6.572;2022-12-18T07:30:38;102207.00;;;-4.14;69.90
48244;BME280;34053;51.088;6.572;2022-12-18T07:33:08;102201.94;;;-4.12;69.57
48244;BME280;34053;51.088;6.572;2022-12-18T07:35:39;102210.47;;;-4.13;69.46
48244;BME280;34053;51.088;6.572;2022-12-18T07:38:11;102216.34;;;-3.99;69.67
48244;BME280;34053;51.088;6.572;2022-12-18T07:40:41;102201.69;;;-4.02;69.39
48244;BME280;34053;51.088;6.572;2022-12-18T07:43:11;102194.25;;;-4.12;69.44
48244;BME280;34053;51.088;6.572;2022-12-18T07:45:42;102195.75;;;-4.16;69.48
48244;BME280;34053;51.088;6.572;2022-12-18T07:48:13;102194.06;;;-4.00;69.08
48244;BME280;34053;51.088;6.572;2022-12-18T07:50:43;102193.31;;;-4.14;70.11
48244;BME280;34053;51.088;6.572;2022-12-18T07:53:14;102179.78;;;-4.12;70.07
48244;BME280;34053;51.088;6.572;2022-12-18T07:55:44;102176.25;;;-4.14;69.53
48244;BME280;34053;51.088;6.572;2022-12-18T07:58:15;102171.28;;;-4.11;69.37
48244;BME280;34053;51.088;6.572;2022-12-18T08:00:46;102173.59;;;-4.15;69.71
48244;BME280;34053;51.088;6.572;2022-12-18T08:03:16;102159.41;;;-4.08;69.75
48244;BME280;34053;51.088;6.572;2022-12-18T08:05:49;102165.63;;;-4.05;69.81
48244;BME280;34053;51.088;6.572;2022-12-18T08:08:20;102165.13;;;-4.14;69.96
48244;BME280;34053;51.088;6.572;2022-12-18T08:10:51;102137.00;;;-4.13;69.89
48244;BME280;34053;51.088;6.572;2022-12-18T08:13:21;102138.75;;;-4.12;70.02
48244;BME280;34053;51.088;6.572;2022-12-18T08:16:18;102129.53;;;-3.93;69.78
48244;BME280;34053;51.088;6.572;2022-12-18T08:18:49;102125.06;;;-3.81;69.22
48244;BME280;34053;51.088;6.572;2022-12-18T08:21:24;102131.28;;;-3.92;69.79
48244;BME280;34053;51.088;6.572;2022-12-18T08:23:57;102119.41;;;-3.90;69.55
48244;BME280;34053;51.088;6.572;2022-12-18T08:26:30;102123.88;;;-4.02;69.90
48244;BME280;34053;51.088;6.572;2022-12-18T08:29:01;102125.22;;;-4.09;70.28
48244;BME280;34053;51.088;6.572;2022-12-18T08:31:31;102125.94;;;-4.12;70.38
48244;BME280;34053;51.088;6.572;2022-12-18T08:34:03;102115.22;;;-4.04;70.58
48244;BME280;34053;51.088;6.572;2022-12-18T08:36:33;102116.00;;;-3.90;69.77
48244;BME280;34053;51.088;6.572;2022-12-18T08:39:04;102107.34;;;-3.76;69.62
48244;BME280;34053;51.088;6.572;2022-12-18T08:41:34;102118.47;;;-3.75;70.09
48244;BME280;34053;51.088;6.572;2022-12-18T08:44:06;102114.19;;;-3.76;69.69
48244;BME280;34053;51.088;6.572;2022-12-18T08:46:55;102116.09;;;-4.04;70.83
48244;BME280;34053;51.088;6.572;2022-12-18T08:49:26;102112.53;;;-3.91;70.50
48244;BME280;34053;51.088;6.572;2022-12-18T08:51:56;102112.69;;;-3.88;70.32
48244;BME280;34053;51.088;6.572;2022-12-18T08:54:28;102108.38;;;-3.89;70.69
48244;BME280;34053;51.088;6.572;2022-12-18T08:56:58;102105.50;;;-3.78;71.01
48244;BME280;34053;51.088;6.572;2022-12-18T08:59:29;102102.22;;;-3.76;70.56
48244;BME280;34053;51.088;6.572;2022-12-18T09:02:00;102100.31;;;-3.80;70.06
48244;BME280;34053;51.088;6.572;2022-12-18T09:04:32;102108.78;;;-3.81;70.77
48244;BME280;34053;51.088;6.572;2022-12-18T09:07:04;102107.13;;;-3.64;70.05
48244;BME280;34053;51.088;6.572;2022-12-18T09:09:35;102115.13;;;-3.74;70.78
48244;BME280;34053;51.088;6.572;2022-12-18T09:12:06;102112.25;;;-3.64;70.52
48244;BME280;34053;51.088;6.572;2022-12-18T09:14:36;102126.44;;;-3.71;70.40
48244;BME280;34053;51.088;6.572;2022-12-18T09:17:07;102112.97;;;-3.67;70.74
48244;BME280;34053;51.088;6.572;2022-12-18T09:19:37;102110.19;;;-3.55;70.09
48244;BME280;34053;51.088;6.572;2022-12-18T09:22:08;102103.94;;;-3.43;70.18
48244;BME280;34053;51.088;6.572;2022-12-18T09:24:39;102092.22;;;-3.38;70.41
48244;BME280;34053;51.088;6.572;2022-12-18T09:27:10;102093.03;;;-3.56;70.56
48244;BME280;34053;51.088;6.572;2022-12-18T09:29:41;102093.44;;;-3.48;70.33
48244;BME280;34053;51.088;6.572;2022-12-18T09:32:11;102092.94;;;-3.41;70.20
48244;BME280;34053;51.088;6.572;2022-12-18T09:34:42;102081.47;;;-3.31;69.76
48244;BME280;34053;51.088;6.572;2022-12-18T09:37:12;102084.59;;;-3.37;69.99
48244;BME280;34053;51.088;6.572;2022-12-18T09:39:43;102074.09;;;-3.41;69.96
48244;BME280;34053;51.088;6.572;2022-12-18T09:42:20;102069.13;;;-3.38;70.19
48244;BME280;34053;51.088;6.572;2022-12-18T09:44:53;102069.28;;;-3.19;69.91
48244;BME280;34053;51.088;6.572;2022-12-18T09:47:28;102068.38;;;-3.19;69.80
48244;BME280;34053;51.088;6.572;2022-12-18T09:50:33;102078.16;;;-3.12;70.50
48244;BME280;34053;51.088;6.572;2022-12-18T09:53:19;102070.84;;;-3.04;70.44
48244;BME280;34053;51.088;6.572;2022-12-18T09:55:52;102046.94;;;-3.03;69.44
48244;BME280;34053;51.088;6.572;2022-12-18T09:58:45;102057.44;;;-2.98;69.49
48244;BME280;34053;51.088;6.572;2022-12-18T10:01:22;102058.00;;;-3.04;70.45
48244;BME280;34053;51.088;6.572;2022-12-18T10:03:53;102050.44;;;-3.01;69.62
48244;BME280;34053;51.088;6.572;2022-12-18T10:09:28;102040.97;;;-2.86;69.93
48244;BME280;34053;51.088;6.572;2022-12-18T10:12:14;102042.91;;;-2.98;69.51
48244;BME280;34053;51.088;6.572;2022-12-18T10:18:07;102034.19;;;-2.83;69.32
48244;BME280;34053;51.088;6.572;2022-12-18T10:23:02;102045.59;;;-2.78;69.14
48244;BME280;34053;51.088;6.572;2022-12-18T10:28:25;102048.00;;;-2.63;69.12
48244;BME280;34053;51.088;6.572;2022-12-18T10:30:57;102045.06;;;-2.71;69.52
48244;BME280;34053;51.088;6.572;2022-12-18T10:33:30;102042.16;;;-2.61;69.43
48244;BME280;34053;51.088;6.572;2022-12-18T10:36:01;102032.97;;;-2.56;68.97
48244;BME280;34053;51.088;6.572;2022-12-18T10:38:33;102017.59;;;-2.54;69.09
48244;BME280;34053;51.088;6.572;2022-12-18T10:44:22;102012.31;;;-2.39;68.51
48244;BME280;34053;51.088;6.572;2022-12-18T10:46:54;102010.97;;;-2.31;69.23
48244;BME280;34053;51.088;6.572;2022-12-18T10:49:28;102004.06;;;-2.32;68.70
48244;BME280;34053;51.088;6.572;2022-12-18T10:55:02;102012.28;;;-2.21;68.91
48244;BME280;34053;51.088;6.572;2022-12-18T10:57:36;102008.56;;;-2.28;68.46
48244;BME280;34053;51.088;6.572;2022-12-18T11:00:27;102018.88;;;-2.08;68.43
48244;BME280;34053;51.088;6.572;2022-12-18T11:02:58;102022.25;;;-2.09;69.01
48244;BME280;34053;51.088;6.572;2022-12-18T11:05:31;102014.16;;;-1.99;68.41
48244;BME280;34053;51.088;6.572;2022-12-18T11:08:02;102011.31;;;-2.05;68.93
48244;BME280;34053;51.088;6.572;2022-12-18T11:10:36;102010.78;;;-1.98;68.76
48244;BME280;34053;51.088;6.572;2022-12-18T11:13:20;102012.25;;;-2.03;68.80
48244;BME280;34053;51.088;6.572;2022-12-18T11:15:52;102011.78;;;-1.94;68.97
48244;BME280;34053;51.088;6.572;2022-12-18T11:18:29;101999.66;;;-1.77;69.26
48244;BME280;34053;51.088;6.572;2022-12-18T11:21:11;101978.06;;;-1.81;69.12
48244;BME280;34053;51.088;6.572;2022-12-18T11:23:49;101975.44;;;-1.82;68.88
48244;BME280;34053;51.088;6.572;2022-12-18T11:26:33;101975.78;;;-1.75;68.91
48244;BME280;34053;51.088;6.572;2022-12-18T11:29:10;101965.59;;;-1.71;68.93
48244;BME280;34053;51.088;6.572;2022-12-18T11:31:45;101963.03;;;-1.71;68.30
48244;BME280;34053;51.088;6.572;2022-12-18T11:34:27;101963.47;;;-1.61;68.27
48244;BME280;34053;51.088;6.572;2022-12-18T11:37:01;101958.63;;;-1.54;67.86
48244;BME280;34053;51.088;6.572;2022-12-18T11:44:59;101954.94;;;-1.40;68.01
48244;BME280;34053;51.088;6.572;2022-12-18T11:47:45;101950.78;;;-1.36;68.02
48244;BME280;34053;51.088;6.572;2022-12-18T11:50:30;101943.91;;;-1.36;67.12
48244;BME280;34053;51.088;6.572;2022-12-18T11:53:01;101931.44;;;-1.27;68.34
48244;BME280;34053;51.088;6.572;2022-12-18T12:05:00;101916.13;;;-1.23;67.72
48244;BME280;34053;51.088;6.572;2022-12-18T12:10:34;101923.03;;;-1.22;66.89
48244;BME280;34053;51.088;6.572;2022-12-18T12:19:02;101926.09;;;-1.10;67.61
48244;BME280;34053;51.088;6.572;2022-12-18T12:24:24;101915.91;;;-1.07;66.44
48244;BME280;34053;51.088;6.572;2022-12-18T12:29:46;101901.03;;;-1.14;65.43
48244;BME280;34053;51.088;6.572;2022-12-18T12:40:35;101905.16;;;-0.97;66.54
48244;BME280;34053;51.088;6.572;2022-12-18T12:45:54;101888.41;;;-1.08;65.00
48244;BME280;34053;51.088;6.572;2022-12-18T12:48:56;101881.03;;;-0.99;65.83
48244;BME280;34053;51.088;6.572;2022-12-18T12:51:32;101888.19;;;-0.91;66.18
48244;BME280;34053;51.088;6.572;2022-12-18T12:54:08;101892.56;;;-0.89;66.41
48244;BME280;34053;51.088;6.572;2022-12-18T13:02:33;101890.53;;;-0.75;67.19
48244;BME280;34053;51.088;6.572;2022-12-18T13:05:17;101897.22;;;-0.80;66.78
48244;BME280;34053;51.088;6.572;2022-12-18T13:07:58;101887.13;;;-0.74;66.65
48244;BME280;34053;51.088;6.572;2022-12-18T13:10:37;101873.19;;;-0.79;66.90
48244;BME280;34053;51.088;6.572;2022-12-18T13:13:15;101867.19;;;-0.78;65.15
48244;BME280;34053;51.088;6.572;2022-12-18T13:15:48;101868.06;;;-0.79;65.67
48244;BME280;34053;51.088;6.572;2022-12-18T13:18:21;101860.66;;;-0.92;65.41
48244;BME280;34053;51.088;6.572;2022-12-18T13:36:51;101840.78;;;-0.72;64.98
48244;BME280;34053;51.088;6.572;2022-12-18T13:39:24;101840.88;;;-0.71;64.56
48244;BME280;34053;51.088;6.572;2022-12-18T13:44:39;101837.69;;;-0.64;65.98
48244;BME280;34053;51.088;6.572;2022-12-18T13:47:34;101834.50;;;-0.56;65.11
48244;BME280;34053;51.088;6.572;2022-12-18T13:50:22;101827.25;;;-0.67;65.30
48244;BME280;34053;51.088;6.572;2022-12-18T13:52:56;101826.25;;;-0.70;65.09
48244;BME280;34053;51.088;6.572;2022-12-18T13:55:27;101825.50;;;-0.68;65.51
48244;BME280;34053;51.088;6.572;2022-12-18T13:58:06;101813.81;;;-0.82;65.24
48244;BME280;34053;51.088;6.572;2022-12-18T14:00:41;101816.47;;;-0.56;66.00
48244;BME280;34053;51.088;6.572;2022-12-18T14:03:27;101806.75;;;-0.64;65.28
48244;BME280;34053;51.088;6.572;2022-12-18T14:06:01;101808.25;;;-0.69;65.38
48244;BME280;34053;51.088;6.572;2022-12-18T14:08:42;101796.06;;;-0.50;64.93
48244;BME280;34053;51.088;6.572;2022-12-18T14:11:22;101796.53;;;-0.60;65.01
48244;BME280;34053;51.088;6.572;2022-12-18T14:13:53;101797.03;;;-0.46;65.06
48244;BME280;34053;51.088;6.572;2022-12-18T14:16:23;101786.69;;;-0.48;65.01
48244;BME280;34053;51.088;6.572;2022-12-18T14:18:55;101777.88;;;-0.53;64.81
48244;BME280;34053;51.088;6.572;2022-12-18T14:21:28;101782.50;;;-0.69;64.02
48244;BME280;34053;51.088;6.572;2022-12-18T14:24:15;101782.91;;;-0.58;65.27
48244;BME280;34053;51.088;6.572;2022-12-18T14:26:50;101775.09;;;-0.59;65.29
48244;BME280;34053;51.088;6.572;2022-12-18T14:32:16;101764.28;;;-0.49;65.02
48244;BME280;34053;51.088;6.572;2022-12-18T14:34:52;101763.63;;;-0.68;64.37
48244;BME280;34053;51.088;6.572;2022-12-18T14:37:26;101774.53;;;-0.75;64.73
48244;BME280;34053;51.088;6.572;2022-12-18T14:40:01;101762.81;;;-0.67;65.05
48244;BME280;34053;51.088;6.572;2022-12-18T14:42:36;101764.88;;;-0.81;65.16
48244;BME280;34053;51.088;6.572;2022-12-18T14:45:35;101768.69;;;-0.71;65.55
48244;BME280;34053;51.088;6.572;2022-12-18T14:50:42;101761.69;;;-0.98;64.33
48244;BME280;34053;51.088;6.572;2022-12-18T14:53:43;101744.88;;;-0.88;64.49
48244;BME280;34053;51.088;6.572;2022-12-18T14:56:17;101763.53;;;-0.71;64.43
48244;BME280;34053;51.088;6.572;2022-12-18T14:58:53;101752.47;;;-0.68;65.43
48244;BME280;34053;51.088;6.572;2022-12-18T15:01:30;101755.19;;;-0.64;64.58
48244;BME280;34053;51.088;6.572;2022-12-18T15:04:03;101747.31;;;-0.68;64.35
48244;BME280;34053;51.088;6.572;2022-12-18T15:06:36;101751.97;;;-0.58;65.40
48244;BME280;34053;51.088;6.572;2022-12-18T15:09:24;101751.56;;;-0.69;64.79
48244;BME280;34053;51.088;6.572;2022-12-18T15:12:00;101754.41;;;-0.85;64.22
48244;BME280;34053;51.088;6.572;2022-12-18T15:17:06;101751.31;;;-0.76;64.98